Time;durP1;ratioP1;P1;durP2;ratioP2;P2;SDS_P1;SDS_P2;PMS_P1;PMS_P2;Temp;Humidity;BMP_temperature;BMP_pressure;BME280_temperature;BME280_humidity;BME280_pressure;Samples;Min_cycle;Max_cycle;Signal;HPM_P1;HPM_P2
2020/12/31 00:02:25;;;;;;;3.83;3.10;;;1.70;99.90;;;;;;5054467;28;20455;-85
2020/12/31 00:04:51;;;;;;;5.73;4.03;;;1.70;99.90;;;;;;5064932;28;20521;-90
2020/12/31 00:07:18;;;;;;;3.13;2.30;;;;;;;;;;5075506;28;20488;-85
2020/12/31 00:09:44;;;;;;;1.90;1.77;;;1.70;99.90;;;;;;5075076;28;20498;-84
2020/12/31 00:12:12;;;;;;;3.30;2.90;;;1.20;99.90;;;;;;5075421;28;20936;-89
2020/12/31 00:14:39;;;;;;;3.43;1.40;;;2.00;99.90;;;;;;5075526;28;20451;-84
2020/12/31 00:17:06;;;;;;;3.40;2.60;;;;;;;;;;5074603;28;20885;-84
2020/12/31 00:19:33;;;;;;;4.23;2.47;;;1.70;99.90;;;;;;5075384;28;20500;-85
2020/12/31 00:21:59;;;;;;;3.57;2.70;;;1.60;99.90;;;;;;5075393;28;20452;-85
2020/12/31 00:24:26;;;;;;;2.90;2.20;;;;;;;;;;5075339;28;20813;-84
2020/12/31 00:26:52;;;;;;;1.23;0.97;;;1.80;99.90;;;;;;5075160;28;20463;-86
2020/12/31 00:29:19;;;;;;;5.20;1.80;;;;;;;;;;5075121;28;20547;-85
2020/12/31 00:31:46;;;;;;;4.10;2.90;;;1.30;99.90;;;;;;5075048;28;20929;-86
2020/12/31 00:34:12;;;;;;;3.13;2.47;;;1.80;99.90;;;;;;5072588;28;20458;-86
2020/12/31 00:36:39;;;;;;;2.73;2.53;;;1.60;99.90;;;;;;5074854;28;20449;-86
2020/12/31 00:39:05;;;;;;;4.17;1.90;;;2.30;99.90;;;;;;5075256;28;20445;-85
2020/12/31 00:41:31;;;;;;;2.40;2.10;;;1.50;99.90;;;;;;5074935;28;20467;-84
2020/12/31 00:43:57;;;;;;;1.87;1.70;;;1.80;99.90;;;;;;5074514;28;20465;-84
2020/12/31 00:46:24;;;;;;;2.60;1.70;;;;;;;;;;5074812;28;20448;-85
2020/12/31 00:48:51;;;;;;;2.30;1.90;;;1.60;99.90;;;;;;5073639;28;20500;-87
2020/12/31 00:51:17;;;;;;;3.90;2.57;;;1.60;99.90;;;;;;5074799;28;20450;-85
2020/12/31 00:53:44;;;;;;;2.80;2.37;;;;;;;;;;5074659;28;20448;-85
2020/12/31 00:56:10;;;;;;;3.73;1.87;;;;;;;;;;5074735;28;20460;-84
2020/12/31 00:58:37;;;;;;;2.60;2.03;;;;;;;;;;5074531;28;20459;-86
2020/12/31 01:01:03;;;;;;;2.93;2.27;;;1.20;99.90;;;;;;5074575;28;20452;-85
2020/12/31 01:03:29;;;;;;;2.97;2.27;;;1.50;99.90;;;;;;5073303;28;20454;-84
2020/12/31 01:05:56;;;;;;;3.93;2.57;;;1.10;99.90;;;;;;5074345;28;20468;-90
2020/12/31 01:08:23;;;;;;;2.20;1.90;;;;;;;;;;5074387;28;20502;-86
2020/12/31 01:10:49;;;;;;;3.00;2.27;;;;;;;;;;5074221;28;20454;-85
2020/12/31 01:13:16;;;;;;;4.20;2.27;;;1.20;99.90;;;;;;5071973;28;20449;-86
2020/12/31 01:15:42;;;;;;;2.53;2.33;;;;;;;;;;5074205;28;20457;-85
2020/12/31 01:18:08;;;;;;;5.07;2.43;;;1.20;99.90;;;;;;5073169;28;20458;-85
2020/12/31 01:20:38;;;;;;;3.70;2.70;;;;;;;;;;5074164;28;20449;-88
2020/12/31 01:23:06;;;;;;;7.23;3.40;;;1.00;99.90;;;;;;5073983;28;20453;-88
2020/12/31 01:25:32;;;;;;;2.23;2.03;;;;;;;;;;5074120;28;20457;-85
2020/12/31 01:27:59;;;;;;;2.87;2.50;;;1.30;99.90;;;;;;5073958;28;20518;-84
2020/12/31 01:30:26;;;;;;;3.20;2.90;;;;;;;;;;5073896;28;20460;-87
2020/12/31 01:32:53;;;;;;;4.23;2.80;;;0.90;99.90;;;;;;5072740;28;20448;-86
2020/12/31 01:35:19;;;;;;;4.60;3.13;;;0.90;99.90;;;;;;5073744;28;20459;-86
2020/12/31 01:37:45;;;;;;;7.90;3.00;;;0.90;99.90;;;;;;5071141;28;20819;-87
2020/12/31 01:40:12;;;;;;;3.67;2.70;;;1.10;99.90;;;;;;5073788;28;20461;-87
2020/12/31 01:42:39;;;;;;;4.17;3.37;;;1.20;99.90;;;;;;5073731;28;20451;-84
2020/12/31 01:45:06;;;;;;;3.60;2.90;;;1.10;99.90;;;;;;5073304;28;20472;-85
2020/12/31 01:47:32;;;;;;;3.60;2.70;;;1.30;99.90;;;;;;5072123;28;20450;-89
2020/12/31 01:49:58;;;;;;;5.70;4.07;;;1.60;99.90;;;;;;5073596;28;20858;-85
2020/12/31 01:52:26;;;;;;;4.57;3.10;;;1.50;99.90;;;;;;5073427;28;20447;-86
2020/12/31 01:54:52;;;;;;;3.57;3.27;;;1.40;99.90;;;;;;5073500;28;20457;-84
2020/12/31 01:57:19;;;;;;;7.57;3.97;;;1.60;99.90;;;;;;5073704;28;20964;-86
2020/12/31 01:59:46;;;;;;;3.07;2.70;;;;;;;;;;5073550;28;20800;-88
2020/12/31 02:02:12;;;;;;;4.77;3.23;;;1.80;99.90;;;;;;5072105;28;20940;-88
2020/12/31 02:04:39;;;;;;;3.40;2.47;;;;;;;;;;5073416;28;20483;-84
2020/12/31 02:07:06;;;;;;;6.10;3.80;;;1.50;99.90;;;;;;5073084;28;20475;-88
2020/12/31 02:09:33;;;;;;;3.27;2.67;;;;;;;;;;5071750;28;20491;-85
2020/12/31 02:12:02;;;;;;;4.33;2.50;;;1.40;99.90;;;;;;5073441;28;20499;-89
2020/12/31 02:14:29;;;;;;;2.80;2.33;;;1.80;99.90;;;;;;5073163;28;20459;-85
2020/12/31 02:16:56;;;;;;;6.50;3.60;;;;;;;;;;5072655;28;20461;-85
2020/12/31 02:19:22;;;;;;;6.43;3.70;;;1.60;99.90;;;;;;5071414;28;20460;-85
2020/12/31 02:21:50;;;;;;;6.93;4.20;;;1.70;99.90;;;;;;5073266;28;20475;-85
2020/12/31 02:24:17;;;;;;;3.03;2.30;;;;;;;;;;5073840;28;20453;-86
2020/12/31 02:26:45;;;;;;;3.50;3.20;;;1.60;99.90;;;;;;5073066;28;20450;-84
2020/12/31 02:29:13;;;;;;;5.43;2.73;;;1.40;99.90;;;;;;5072753;28;20492;-84
2020/12/31 02:31:40;;;;;;;5.37;3.90;;;1.50;99.90;;;;;;5073094;28;20499;-84
2020/12/31 02:34:07;;;;;;;6.23;3.73;;;1.60;99.90;;;;;;5072539;28;21149;-85
2020/12/31 02:36:35;;;;;;;3.40;2.63;;;2.10;99.90;;;;;;5073225;28;20513;-84
2020/12/31 02:39:05;;;;;;;4.33;3.40;;;1.50;99.90;;;;;;5072757;28;20464;-84
2020/12/31 02:41:32;;;;;;;5.30;3.47;;;;;;;;;;5072931;28;20824;-85
2020/12/31 02:43:59;;;;;;;5.07;3.40;;;;;;;;;;5072588;28;20448;-85
2020/12/31 02:46:25;;;;;;;3.93;3.20;;;1.40;99.90;;;;;;5072849;28;20772;-85
2020/12/31 02:48:52;;;;;;;4.83;3.67;;;1.30;99.90;;;;;;5069013;28;20855;-87
2020/12/31 02:51:18;;;;;;;4.43;3.53;;;1.40;99.90;;;;;;5072902;28;21016;-85
2020/12/31 02:53:45;;;;;;;6.40;4.53;;;1.00;99.90;;;;;;5072860;28;20445;-85
2020/12/31 02:56:13;;;;;;;5.17;3.27;;;0.80;99.90;;;;;;5072938;28;20498;-85
2020/12/31 02:58:40;;;;;;;5.97;4.00;;;1.00;99.90;;;;;;5074896;28;20450;-85
2020/12/31 03:01:07;;;;;;;4.70;3.70;;;1.10;99.90;;;;;;5076461;28;20520;-85
2020/12/31 03:03:34;;;;;;;6.93;3.70;;;1.00;99.90;;;;;;5075627;28;20457;-86
2020/12/31 03:06:00;;;;;;;4.60;3.50;;;;;;;;;;5076646;28;20485;-86
2020/12/31 03:08:27;;;;;;;5.10;3.77;;;;;;;;;;5076927;28;20491;-89
2020/12/31 03:10:54;;;;;;;5.60;3.90;;;0.60;99.90;;;;;;5076564;28;20449;-86
2020/12/31 03:13:23;;;;;;;5.33;3.87;;;0.10;99.90;;;;;;5076725;28;20456;-85
2020/12/31 03:15:50;;;;;;;6.47;4.13;;;0.30;99.90;;;;;;5076266;28;20480;-85
2020/12/31 03:18:17;;;;;;;5.93;4.00;;;;;;;;;;5075377;28;20445;-84
2020/12/31 03:20:44;;;;;;;4.77;3.83;;;;;;;;;;5076384;28;20924;-86
2020/12/31 03:23:11;;;;;;;8.03;3.53;;;0.20;99.90;;;;;;5076295;28;20457;-84
2020/12/31 03:25:38;;;;;;;5.27;4.10;;;0.00;99.90;;;;;;5076384;28;20452;-87
2020/12/31 03:28:04;;;;;;;6.07;4.20;;;-0.10;99.90;;;;;;5075894;28;20519;-85
2020/12/31 03:30:31;;;;;;;6.03;3.90;;;-0.10;99.90;;;;;;5076230;28;20444;-87
2020/12/31 03:32:58;;;;;;;6.63;3.90;;;;;;;;;;5075076;28;20449;-85
2020/12/31 03:35:24;;;;;;;3.57;2.93;;;0.10;99.90;;;;;;5076102;28;20471;-85
2020/12/31 03:37:50;;;;;;;6.53;4.03;;;-0.30;99.90;;;;;;5076281;28;20462;-86
2020/12/31 03:40:17;;;;;;;4.70;4.07;;;0.00;99.90;;;;;;5076115;28;20462;-88
2020/12/31 03:42:43;;;;;;;4.80;4.10;;;0.40;99.90;;;;;;5075927;28;20456;-90
2020/12/31 03:45:09;;;;;;;4.47;3.20;;;0.40;99.90;;;;;;5076009;28;20507;-85
2020/12/31 03:47:36;;;;;;;5.67;4.20;;;-0.20;99.90;;;;;;5074873;28;20445;-86
2020/12/31 03:50:03;;;;;;;6.80;3.57;;;0.00;99.90;;;;;;5075959;28;20493;-88
2020/12/31 03:52:30;;;;;;;4.83;3.83;;;0.00;99.90;;;;;;5076042;28;20456;-85
2020/12/31 03:54:56;;;;;;;5.07;3.77;;;-0.10;99.90;;;;;;5075751;28;20453;-86
2020/12/31 03:57:22;;;;;;;7.60;4.00;;;0.50;99.90;;;;;;5075721;28;20454;-85
2020/12/31 03:59:49;;;;;;;4.90;3.90;;;-0.20;99.90;;;;;;5075850;28;20446;-88
2020/12/31 04:02:15;;;;;;;5.50;4.13;;;;;;;;;;5074731;28;20456;-86
2020/12/31 04:04:42;;;;;;;4.80;3.67;;;-0.20;99.90;;;;;;5075906;28;20797;-86
2020/12/31 04:07:09;;;;;;;5.20;3.80;;;-0.10;99.90;;;;;;5075562;28;20527;-87
2020/12/31 04:09:36;;;;;;;4.53;3.50;;;0.00;99.90;;;;;;5075338;28;20504;-85
2020/12/31 04:12:02;;;;;;;4.37;3.70;;;-0.40;99.90;;;;;;5072878;28;20445;-86
2020/12/31 04:14:29;;;;;;;5.00;3.27;;;;;;;;;;5075629;28;20450;-87
2020/12/31 04:16:56;;;;;;;3.53;2.83;;;-0.30;99.90;;;;;;5075468;28;20480;-85
2020/12/31 04:19:22;;;;;;;4.90;3.17;;;-0.60;99.90;;;;;;5074382;28;20506;-89
2020/12/31 04:21:49;;;;;;;5.13;3.33;;;-0.30;99.90;;;;;;5075359;28;20438;-86
2020/12/31 04:24:15;;;;;;;4.63;3.20;;;-0.60;99.90;;;;;;5075232;28;20934;-88
2020/12/31 04:26:48;;;;;;;5.77;3.70;;;-0.50;99.90;;;;;;5075229;28;20444;-86
2020/12/31 04:29:14;;;;;;;4.73;3.40;;;-0.50;99.90;;;;;;5075265;28;20491;-85
2020/12/31 04:31:40;;;;;;;4.90;3.43;;;-0.40;99.90;;;;;;5075043;28;20452;-85
2020/12/31 04:34:07;;;;;;;3.33;3.03;;;;;;;;;;5073982;28;20937;-86
2020/12/31 04:36:33;;;;;;;3.33;2.90;;;-0.60;99.90;;;;;;5075117;28;20517;-85
2020/12/31 04:39:00;;;;;;;3.77;3.17;;;-0.60;99.90;;;;;;5075163;28;20843;-84
2020/12/31 04:41:27;;;;;;;5.00;2.90;;;;;;;;;;5074668;28;20442;-90
2020/12/31 04:43:55;;;;;;;3.67;2.93;;;-0.60;99.90;;;;;;5074981;28;20439;-85
2020/12/31 04:46:23;;;;;;;3.53;2.50;;;-0.40;99.90;;;;;;5074877;28;20454;-85
2020/12/31 04:48:56;;;;;;;3.10;2.47;;;-0.50;99.90;;;;;;5073854;28;20564;-87
2020/12/31 04:51:25;;;;;;;5.87;3.03;;;-0.40;99.90;;;;;;5074803;28;20938;-91
2020/12/31 04:53:54;;;;;;;3.40;3.10;;;-0.40;99.90;;;;;;5074562;28;20468;-86
2020/12/31 04:56:25;;;;;;;3.40;2.73;;;-0.40;99.90;;;;;;5074797;28;20447;-90
2020/12/31 04:58:54;;;;;;;3.53;2.90;;;0.20;99.90;;;;;;5074960;28;20450;-85
2020/12/31 05:01:20;;;;;;;4.50;2.90;;;-0.20;99.90;;;;;;5074983;28;20935;-85
2020/12/31 05:03:46;;;;;;;3.20;2.40;;;-0.20;99.90;;;;;;5073499;28;20442;-85
2020/12/31 05:06:16;;;;;;;3.40;3.10;;;-0.50;99.90;;;;;;5074143;28;20470;-89
2020/12/31 05:08:44;;;;;;;4.07;3.37;;;-0.50;99.90;;;;;;5074527;28;20489;-90
2020/12/31 05:11:12;;;;;;;4.10;2.90;;;-0.70;99.90;;;;;;5074450;28;20450;-87
2020/12/31 05:13:47;;;;;;;4.80;3.20;;;-0.50;99.90;;;;;;5074323;28;20454;-85
2020/12/31 05:16:13;;;;;;;3.47;2.83;;;;;;;;;;5074310;28;20523;-88
2020/12/31 05:18:40;;;;;;;5.30;2.90;;;;;;;;;;5073015;28;20452;-88
2020/12/31 05:21:16;;;;;;;3.77;3.00;;;-0.60;99.90;;;;;;5073532;28;20471;-86
2020/12/31 05:23:46;;;;;;;4.60;3.20;;;-0.60;99.90;;;;;;5074247;28;20955;-88
2020/12/31 05:26:27;;;;;;;3.07;2.77;;;-0.70;99.90;;;;;;5074121;28;20447;-86
2020/12/31 05:28:54;;;;;;;5.70;3.03;;;-0.80;99.90;;;;;;5073964;28;20562;-86
2020/12/31 05:31:21;;;;;;;4.20;3.00;;;-0.40;99.90;;;;;;5073843;28;20454;-91
2020/12/31 05:33:47;;;;;;;4.07;3.67;;;-0.90;99.90;;;;;;5073001;28;20456;-91
2020/12/31 05:36:19;;;;;;;3.53;2.97;;;-0.70;99.90;;;;;;5073674;28;20451;-86
2020/12/31 05:39:00;;;;;;;4.60;3.13;;;-0.20;99.90;;;;;;5073577;28;20453;-86
2020/12/31 05:41:28;;;;;;;3.10;2.67;;;-0.90;99.90;;;;;;5073826;28;20445;-86
2020/12/31 05:43:57;;;;;;;2.67;2.13;;;-0.80;99.90;;;;;;5073639;28;20465;-85
2020/12/31 05:46:24;;;;;;;3.30;2.30;;;-0.60;99.90;;;;;;5073722;28;20447;-86
2020/12/31 05:48:55;;;;;;;4.87;2.80;;;-0.80;99.90;;;;;;5072379;28;20547;-85
2020/12/31 05:51:27;;;;;;;3.17;2.87;;;0.00;99.90;;;;;;5073585;28;20450;-85
2020/12/31 05:53:54;;;;;;;3.43;2.40;;;;;;;;;;5073562;28;20451;-83
2020/12/31 05:56:22;;;;;;;3.10;2.53;;;-0.40;99.90;;;;;;5073271;28;20507;-83
2020/12/31 05:58:51;;;;;;;3.43;2.60;;;-0.50;99.90;;;;;;5073691;28;20454;-85
2020/12/31 06:01:19;;;;;;;3.77;3.10;;;-0.60;99.90;;;;;;5073352;28;20457;-86
2020/12/31 06:03:51;;;;;;;3.13;2.70;;;-0.50;99.90;;;;;;5072424;28;20850;-85
2020/12/31 06:06:19;;;;;;;4.80;2.83;;;-0.80;99.90;;;;;;5073158;28;20478;-84
2020/12/31 06:08:55;;;;;;;4.50;3.27;;;-0.70;99.90;;;;;;5073251;28;20488;-85
2020/12/31 06:11:32;;;;;;;3.30;3.00;;;-0.70;99.90;;;;;;5073503;28;20456;-84
2020/12/31 06:13:58;;;;;;;3.17;2.63;;;-0.70;99.90;;;;;;5073192;28;20442;-85
2020/12/31 06:16:27;;;;;;;4.50;3.23;;;-0.70;99.90;;;;;;5073233;28;20442;-84
2020/12/31 06:19:00;;;;;;;4.40;2.80;;;-0.90;99.90;;;;;;5072127;28;20441;-86
2020/12/31 06:21:39;;;;;;;4.07;2.90;;;-0.50;99.90;;;;;;5072944;28;20469;-84
2020/12/31 06:24:11;;;;;;;4.67;2.80;;;-0.70;99.90;;;;;;5073013;28;20484;-85
2020/12/31 06:26:41;;;;;;;4.10;3.10;;;-0.70;99.90;;;;;;5073054;28;20926;-84
2020/12/31 06:29:08;;;;;;;3.70;3.20;;;-0.80;99.90;;;;;;5073287;28;20490;-85
2020/12/31 06:31:35;;;;;;;5.50;3.20;;;-0.80;99.90;;;;;;5073034;28;20832;-87
2020/12/31 06:34:02;;;;;;;3.70;3.10;;;;;;;;;;5070749;28;20952;-84
2020/12/31 06:36:35;;;;;;;5.60;3.40;;;-0.70;99.90;;;;;;5073045;28;20457;-84
2020/12/31 06:39:02;;;;;;;3.57;2.83;;;-0.60;99.90;;;;;;5072848;28;20458;-84
2020/12/31 06:41:40;;;;;;;5.97;3.83;;;-0.90;99.90;;;;;;5070566;28;20453;-85
2020/12/31 06:44:08;;;;;;;4.20;3.13;;;-0.70;99.90;;;;;;5072968;28;20452;-85
2020/12/31 06:46:40;;;;;;;4.50;3.60;;;-0.60;99.90;;;;;;5072876;28;20479;-85
2020/12/31 06:49:07;;;;;;;7.20;5.03;;;-0.60;99.90;;;;;;5070128;28;20984;-85
2020/12/31 06:51:33;;;;;;;6.73;4.83;;;-0.80;99.90;;;;;;5072923;28;20802;-84
2020/12/31 06:53:59;;;;;;;5.50;3.37;;;-0.60;99.90;;;;;;5072946;28;20469;-84
2020/12/31 06:56:45;;;;;;;4.67;3.20;;;-0.60;99.90;;;;;;5072941;28;20439;-84
2020/12/31 06:59:25;;;;;;;3.60;2.93;;;-0.30;99.90;;;;;;5073014;28;21136;-84
2020/12/31 07:01:54;;;;;;;4.17;3.10;;;-0.40;99.90;;;;;;5072963;28;20971;-85
2020/12/31 07:04:32;;;;;;;4.97;3.90;;;-0.60;99.90;;;;;;5071158;28;20484;-86
2020/12/31 07:06:59;;;;;;;6.77;4.07;;;-0.40;99.90;;;;;;5072334;28;20476;-86
2020/12/31 07:09:31;;;;;;;4.97;3.87;;;-0.50;99.90;;;;;;5053784;28;20483;-83
2020/12/31 07:11:59;;;;;;;6.20;4.10;;;-0.60;99.90;;;;;;5052524;28;20456;-85
2020/12/31 07:14:27;;;;;;;9.23;4.20;;;-0.40;99.90;;;;;;5052623;28;20977;-84
2020/12/31 07:17:03;;;;;;;5.80;4.27;;;-0.60;99.90;;;;;;5052611;28;20458;-86
2020/12/31 07:19:37;;;;;;;5.33;4.17;;;-0.30;99.90;;;;;;5051601;28;20945;-88
2020/12/31 07:22:18;;;;;;;5.77;4.17;;;-0.20;99.90;;;;;;5052350;28;20441;-86
2020/12/31 07:24:49;;;;;;;4.90;3.23;;;-0.50;99.90;;;;;;5052413;28;20782;-86
2020/12/31 07:27:23;;;;;;;8.27;5.30;;;-0.40;99.90;;;;;;5052433;28;20464;-89
2020/12/31 07:29:57;;;;;;;4.97;4.23;;;-0.10;99.90;;;;;;5052229;28;20493;-85
2020/12/31 07:32:49;;;;;;;5.13;4.13;;;-0.50;99.90;;;;;;5051141;28;20452;-87
2020/12/31 07:35:34;;;;;;;5.37;3.20;;;-0.20;99.90;;;;;;5052471;28;20456;-84
2020/12/31 07:38:02;;;;;;;5.60;3.83;;;-0.20;99.90;;;;;;5049899;28;20458;-84
2020/12/31 07:40:37;;;;;;;4.53;3.67;;;0.00;99.90;;;;;;5052468;28;20458;-85
2020/12/31 07:43:05;;;;;;;4.40;3.70;;;-0.10;99.90;;;;;;5051985;28;20447;-88
2020/12/31 07:45:32;;;;;;;4.40;3.13;;;0.10;99.90;;;;;;5055356;28;20460;-84
2020/12/31 07:48:00;;;;;;;4.93;3.10;;;0.20;99.90;;;;;;5055016;28;20451;-84
2020/12/31 07:50:27;;;;;;;4.90;3.73;;;0.20;99.90;;;;;;5056788;28;20859;-84
2020/12/31 07:52:53;;;;;;;4.43;3.90;;;-0.20;99.90;;;;;;5056034;28;20451;-87
2020/12/31 07:55:20;;;;;;;4.33;3.37;;;0.10;99.90;;;;;;5055652;28;20447;-86
2020/12/31 07:57:47;;;;;;;3.83;2.93;;;;;;;;;;5055919;28;20448;-85
2020/12/31 08:00:14;;;;;;;5.90;4.93;;;0.20;99.90;;;;;;5056001;28;20455;-85
2020/12/31 08:02:48;;;;;;;6.80;5.10;;;0.20;99.90;;;;;;5054863;28;20458;-85
2020/12/31 08:05:17;;;;;;;5.73;4.10;;;0.20;99.90;;;;;;5055758;28;20461;-86
2020/12/31 08:07:44;;;;;;;4.27;3.20;;;0.50;99.90;;;;;;5056182;28;20477;-85
2020/12/31 08:10:11;;;;;;;8.20;3.63;;;0.60;99.90;;;;;;5055594;28;20501;-84
2020/12/31 08:12:39;;;;;;;5.70;4.30;;;1.10;99.90;;;;;;5055451;28;20474;-85
2020/12/31 08:15:06;;;;;;;4.50;3.10;;;0.20;99.90;;;;;;5055666;28;20873;-85
2020/12/31 08:17:33;;;;;;;5.00;3.07;;;0.30;99.90;;;;;;5054273;28;20552;-88
2020/12/31 08:20:01;;;;;;;4.93;3.70;;;1.00;99.90;;;;;;5055387;28;20464;-85
2020/12/31 08:22:35;;;;;;;6.40;4.70;;;0.30;99.90;;;;;;5055424;28;20453;-86
2020/12/31 08:25:06;;;;;;;5.50;4.13;;;0.70;99.90;;;;;;5055554;28;20521;-87
2020/12/31 08:27:37;;;;;;;5.30;4.20;;;0.50;99.90;;;;;;5055276;28;20499;-89
2020/12/31 08:30:06;;;;;;;5.00;3.77;;;0.50;99.90;;;;;;5055192;28;20498;-85
2020/12/31 08:32:48;;;;;;;7.50;3.83;;;0.90;99.90;;;;;;5053549;28;20491;-85
2020/12/31 08:35:19;;;;;;;5.03;3.47;;;0.90;99.90;;;;;;5064235;28;20442;-85
2020/12/31 08:37:47;;;;;;;5.63;4.07;;;0.90;99.90;;;;;;5075044;28;20452;-85
2020/12/31 08:40:20;;;;;;;7.67;4.97;;;1.20;99.90;;;;;;5075049;28;20443;-85
2020/12/31 08:42:52;;;;;;;6.17;4.33;;;0.90;99.90;;;;;;5075297;28;20448;-89
2020/12/31 08:45:30;;;;;;;5.63;4.27;;;0.60;99.90;;;;;;5075237;28;20453;-90
2020/12/31 08:48:10;;;;;;;9.00;6.03;;;1.90;99.90;;;;;;5070855;28;20449;-86
2020/12/31 08:50:37;;;;;;;6.73;5.20;;;1.00;99.90;;;;;;5074833;28;20504;-85
2020/12/31 08:53:04;;;;;;;6.07;5.40;;;1.00;99.90;;;;;;5074638;28;20461;-85
2020/12/31 08:55:35;;;;;;;7.33;5.53;;;0.80;99.90;;;;;;5073928;28;20812;-86
2020/12/31 08:58:14;;;;;;;8.93;5.70;;;1.00;99.90;;;;;;5076110;28;20449;-86
2020/12/31 09:00:41;;;;;;;7.13;4.63;;;;;;;;;;5075367;28;20439;-86
2020/12/31 09:03:08;;;;;;;6.00;4.27;;;1.30;99.90;;;;;;5073359;28;20449;-88
2020/12/31 09:05:34;;;;;;;5.57;4.40;;;1.20;99.90;;;;;;5074145;28;20944;-88
2020/12/31 09:08:06;;;;;;;5.87;4.73;;;1.00;99.90;;;;;;5072816;28;20484;-86
2020/12/31 09:10:34;;;;;;;5.57;4.50;;;1.10;99.90;;;;;;5074534;28;20493;-88
2020/12/31 09:13:02;;;;;;;5.10;3.87;;;1.20;99.90;;;;;;5074591;28;20473;-88
2020/12/31 09:15:29;;;;;;;5.43;4.23;;;1.30;99.90;;;;;;5075605;28;20821;-88
2020/12/31 09:17:55;;;;;;;6.23;4.17;;;;;;;;;;5073485;28;20454;-86
2020/12/31 09:20:25;;;;;;;5.93;4.43;;;1.30;99.90;;;;;;5074117;28;20451;-84
2020/12/31 09:22:51;;;;;;;6.03;5.13;;;1.30;99.90;;;;;;5073945;28;20803;-85
2020/12/31 09:25:20;;;;;;;5.53;4.40;;;1.40;99.90;;;;;;5074049;28;20460;-85
2020/12/31 09:27:46;;;;;;;6.57;4.60;;;1.40;99.90;;;;;;5074069;28;20476;-85
2020/12/31 09:30:15;;;;;;;7.50;4.90;;;1.40;99.90;;;;;;5073935;28;21001;-87
2020/12/31 09:32:46;;;;;;;5.63;4.17;;;1.70;99.90;;;;;;5073453;28;20509;-87
2020/12/31 09:35:13;;;;;;;7.53;4.80;;;;;;;;;;5074093;28;20441;-88
2020/12/31 09:37:46;;;;;;;7.77;5.47;;;1.80;99.90;;;;;;5073864;28;20446;-91
2020/12/31 09:40:13;;;;;;;5.67;4.80;;;;;;;;;;5074012;28;20460;-87
2020/12/31 09:42:41;;;;;;;6.10;5.40;;;1.70;99.90;;;;;;5073368;28;20447;-87
2020/12/31 09:45:08;;;;;;;7.00;5.20;;;2.10;99.90;;;;;;5073659;28;20439;-85
2020/12/31 09:47:34;;;;;;;6.37;5.10;;;;;;;;;;5060968;28;20453;-85
2020/12/31 09:50:01;;;;;;;5.10;4.60;;;1.40;99.90;;;;;;5053182;28;20494;-87
2020/12/31 09:52:27;;;;;;;6.57;4.43;;;1.70;99.90;;;;;;5053210;28;20815;-88
2020/12/31 09:54:53;;;;;;;7.53;6.17;;;;;;;;;;5053959;28;20442;-90
2020/12/31 09:57:20;;;;;;;7.90;5.20;;;1.90;99.90;;;;;;5054076;28;20451;-89
2020/12/31 09:59:47;;;;;;;5.90;4.00;;;1.80;99.90;;;;;;5053137;28;20468;-84
2020/12/31 10:02:13;;;;;;;5.70;4.17;;;1.70;99.90;;;;;;5052133;28;20442;-88
2020/12/31 10:04:40;;;;;;;5.70;3.83;;;1.90;99.90;;;;;;5052881;28;20507;-88
2020/12/31 10:07:07;;;;;;;4.73;3.87;;;1.70;99.90;;;;;;5052902;28;20478;-86
2020/12/31 10:09:33;;;;;;;4.27;3.17;;;2.00;99.90;;;;;;5053147;28;20815;-87
2020/12/31 10:12:00;;;;;;;3.20;2.90;;;;;;;;;;5052917;28;20454;-88
2020/12/31 10:14:26;;;;;;;5.53;4.10;;;2.10;99.90;;;;;;5052991;28;20992;-88
2020/12/31 10:16:59;;;;;;;8.07;4.13;;;2.60;99.90;;;;;;5053002;28;20447;-88
2020/12/31 10:19:26;;;;;;;3.83;3.17;;;3.00;99.90;;;;;;5047348;28;20457;-89
2020/12/31 10:21:52;;;;;;;5.10;3.80;;;3.30;99.90;;;;;;5053161;28;20447;-86
2020/12/31 10:24:18;;;;;;;4.67;3.60;;;3.10;99.90;;;;;;5052914;28;20449;-88
2020/12/31 10:26:46;;;;;;;4.30;3.90;;;2.90;99.90;;;;;;5053354;28;20451;-87
2020/12/31 10:29:13;;;;;;;8.83;3.00;;;2.60;99.90;;;;;;5053064;28;20491;-87
2020/12/31 10:31:41;;;;;;;5.43;3.70;;;2.90;99.90;;;;;;5053040;28;20463;-88
2020/12/31 10:34:08;;;;;;;5.30;4.10;;;2.30;99.90;;;;;;5051902;28;20463;-83
2020/12/31 10:36:36;;;;;;;4.40;3.70;;;2.10;99.90;;;;;;5052994;28;20517;-83
2020/12/31 10:39:02;;;;;;;3.93;3.13;;;;;;;;;;5053267;28;20495;-88
2020/12/31 10:41:30;;;;;;;4.90;3.53;;;2.60;99.90;;;;;;5054057;28;20452;-83
2020/12/31 10:43:57;;;;;;;1.80;1.30;;;1.90;99.90;;;;;;5052908;28;20457;-84
2020/12/31 10:46:24;;;;;;;2.73;2.33;;;1.90;99.90;;;;;;5052667;28;20446;-82
2020/12/31 10:48:50;;;;;;;3.27;2.30;;;1.80;99.90;;;;;;5051490;28;20465;-83
2020/12/31 10:51:17;;;;;;;4.57;3.70;;;1.90;99.90;;;;;;5051304;28;20517;-84
2020/12/31 10:53:44;;;;;;;2.23;1.90;;;;;;;;;;5053117;28;20442;-84
2020/12/31 10:56:10;;;;;;;5.20;4.00;;;1.60;99.90;;;;;;5052693;28;20446;-87
2020/12/31 10:58:37;;;;;;;5.23;3.50;;;1.60;99.90;;;;;;5053171;28;20442;-86
2020/12/31 11:01:03;;;;;;;4.90;3.83;;;1.30;99.90;;;;;;5052973;28;20452;-88
2020/12/31 11:03:30;;;;;;;2.47;2.00;;;2.00;99.90;;;;;;5052056;28;20452;-87
2020/12/31 11:05:56;;;;;;;2.63;1.40;;;2.00;99.90;;;;;;5052970;28;20451;-85
2020/12/31 11:08:23;;;;;;;4.23;3.83;;;1.90;99.90;;;;;;5051281;28;20999;-84
2020/12/31 11:10:49;;;;;;;6.10;5.50;;;2.00;99.90;;;;;;5051587;28;20504;-86
2020/12/31 11:13:16;;;;;;;4.70;3.57;;;1.90;99.90;;;;;;5052778;28;20477;-86
2020/12/31 11:15:42;;;;;;;6.30;4.50;;;;;;;;;;5052557;28;20446;-89
2020/12/31 11:18:10;;;;;;;4.87;3.47;;;2.20;99.90;;;;;;5051695;28;20883;-85
2020/12/31 11:20:37;;;;;;;5.60;4.50;;;2.30;99.90;;;;;;5056402;28;20529;-88
2020/12/31 11:23:04;;;;;;;7.33;4.33;;;;;;;;;;5056719;28;20520;-88
2020/12/31 11:25:31;;;;;;;7.87;4.47;;;2.30;99.90;;;;;;5056566;28;20476;-84
2020/12/31 11:27:57;;;;;;;6.23;4.50;;;2.30;99.90;;;;;;5056401;28;20450;-87
2020/12/31 11:30:23;;;;;;;9.17;6.10;;;2.70;99.90;;;;;;5056175;28;21008;-88
2020/12/31 11:32:49;;;;;;;3.30;3.00;;;2.40;99.90;;;;;;5049537;28;20783;-86
2020/12/31 11:35:16;;;;;;;4.10;3.30;;;;;;;;;;5056235;28;20462;-85
2020/12/31 11:37:43;;;;;;;8.20;3.93;;;2.80;99.90;;;;;;5056352;28;20581;-89
2020/12/31 11:40:09;;;;;;;6.83;4.37;;;2.80;99.90;;;;;;5056108;28;20974;-84
2020/12/31 11:42:37;;;;;;;6.37;4.63;;;2.50;99.90;;;;;;5056007;28;20450;-84
2020/12/31 11:45:05;;;;;;;7.60;5.03;;;2.70;99.90;;;;;;5055990;28;20453;-88
2020/12/31 11:47:31;;;;;;;3.57;2.80;;;2.70;99.90;;;;;;5054777;28;20439;-87
2020/12/31 11:49:57;;;;;;;7.83;4.37;;;2.70;99.90;;;;;;5055925;28;20494;-88
2020/12/31 11:52:24;;;;;;;6.33;4.27;;;;;;;;;;5054360;28;20452;-83
2020/12/31 11:54:50;;;;;;;7.23;3.93;;;3.50;99.90;;;;;;5054336;28;21014;-83
2020/12/31 11:57:16;;;;;;;3.60;3.30;;;3.90;99.90;;;;;;5051069;28;20456;-88
2020/12/31 11:59:43;;;;;;;5.80;4.30;;;4.40;99.90;;;;;;5055743;28;20454;-88
2020/12/31 12:02:10;;;;;;;4.33;3.83;;;;;;;;;;5052581;28;20801;-85
2020/12/31 12:04:37;;;;;;;4.87;3.90;;;3.30;99.90;;;;;;5055878;28;20459;-85
2020/12/31 12:07:03;;;;;;;5.90;3.87;;;;;;;;;;5067690;28;20478;-85
2020/12/31 12:09:30;;;;;;;5.93;3.60;;;3.00;99.90;;;;;;5072657;28;20491;-87
2020/12/31 12:11:57;;;;;;;5.50;3.63;;;3.00;99.90;;;;;;5075487;28;20476;-89
2020/12/31 12:14:23;;;;;;;5.03;3.50;;;2.80;99.90;;;;;;5075594;28;20448;-89
2020/12/31 12:16:50;;;;;;;3.93;3.00;;;2.40;99.90;;;;;;5076040;28;20443;-88
2020/12/31 12:19:17;;;;;;;4.07;3.30;;;2.60;99.90;;;;;;5070643;28;20447;-88
2020/12/31 12:21:44;;;;;;;6.70;3.70;;;2.50;99.90;;;;;;5075697;28;20991;-92
2020/12/31 12:24:10;;;;;;;7.10;4.23;;;3.00;99.90;;;;;;5073120;28;20434;-93
2020/12/31 12:26:38;;;;;;;4.30;3.37;;;2.90;99.90;;;;;;5075482;28;20451;-91
2020/12/31 12:29:05;;;;;;;4.47;3.60;;;;;;;;;;5075358;28;20441;-89
2020/12/31 12:31:32;;;;;;;4.50;3.73;;;3.10;99.90;;;;;;5075179;28;20442;-85
2020/12/31 12:33:59;;;;;;;4.90;3.67;;;2.80;99.90;;;;;;5074222;28;20441;-86
2020/12/31 12:36:26;;;;;;;5.17;3.80;;;2.50;99.90;;;;;;5075041;28;20456;-86
2020/12/31 12:38:52;;;;;;;5.17;3.87;;;2.70;99.90;;;;;;5066587;28;20454;-82
2020/12/31 12:41:18;;;;;;;3.40;3.10;;;3.30;99.90;;;;;;5074356;28;20450;-83
2020/12/31 12:43:45;;;;;;;6.10;3.87;;;2.90;99.90;;;;;;5073954;28;20450;-83
2020/12/31 12:46:14;;;;;;;6.90;3.70;;;2.70;99.90;;;;;;5074943;28;20442;-87
2020/12/31 12:48:41;;;;;;;5.90;3.40;;;2.90;99.90;;;;;;5075024;28;20448;-91
2020/12/31 12:51:08;;;;;;;4.03;3.30;;;2.50;99.90;;;;;;5083913;28;20482;-86
2020/12/31 12:53:38;;;;;;;3.97;3.57;;;2.50;99.90;;;;;;5071844;28;20457;-92
2020/12/31 12:56:05;;;;;;;5.10;3.53;;;2.80;99.90;;;;;;5076518;28;20457;-84
2020/12/31 12:58:32;;;;;;;7.27;3.87;;;2.80;99.90;;;;;;5071795;28;20465;-90
2020/12/31 13:00:58;;;;;;;5.60;3.77;;;2.90;99.90;;;;;;5075572;28;20455;-88
2020/12/31 13:03:25;;;;;;;4.67;2.60;;;;;;;;;;5069846;28;20941;-88
2020/12/31 13:05:51;;;;;;;4.60;3.30;;;3.00;99.90;;;;;;5074521;28;20823;-87
2020/12/31 13:08:21;;;;;;;3.97;3.57;;;3.00;99.90;;;;;;5074555;28;20448;-90
2020/12/31 13:10:48;;;;;;;6.20;3.23;;;2.90;99.90;;;;;;5074389;28;20599;-87
2020/12/31 13:13:14;;;;;;;5.60;3.70;;;3.40;99.90;;;;;;5071247;28;20466;-90
2020/12/31 13:15:41;;;;;;;5.60;4.00;;;;;;;;;;5074728;28;20445;-85